World of Logs combat log analyzer allows gamers to save, share and analyze their raiding experiences conveniently and thoroughly in the Blizzard MMO World of Warcraft. If you're new here, make sure you check out the tour for a 1 minute introduction. If you have any questions, we're happy to answer them on the forums.

DPS HPS
Odyn
Helya
Guarm
Reports for Conclave of Wind - statistics
# Date Time Damage DPS Guild Realm
1 21 Jul 2012 01:26 24.64M 285930.4 retri test EU-Ревущий фьорд
2 03 May 2012 01:26 24.32M 280241.7 Skeviltum EU-Frostmourne
3 10 May 2012 01:29 25.76M 286200.1 Klott (Non-Guild Runs) EU-Hellscream
4 30 Jul 2012 01:30 26.60M 295408.2 Schisms US-Mal'Ganis
5 10 May 2012 01:30 25.23M 279422.0 Starlight EU-Silvermoon
6 31 Jul 2012 01:30 25.07M 276357.6 Free at Last US-Eldre'Thalas
7 25 Aug 2012 01:31 26.33M 286656.2 Avatar US-Suramar
8 14 Aug 2012 01:31 26.36M 286611.6 Disciples of Gabriel US-Turalyon
9 21 Mar 2012 01:35 24.95M 260400.0 Mexico US-Andorhal
10 10 Jun 2012 01:35 25.05M 260996.6 reroll EU-Culte de la Rive noire
11 10 Jun 2012 01:35 25.57M 266394.9 Angeli tenebrae EU-Hyjal
12 04 Apr 2012 01:37 26.14M 267124.4 Axis US-Dark Iron
13 05 Apr 2012 01:39 25.67M 257556.1 High Class US-Blackrock
14 20 Aug 2012 01:40 26.49M 263985.4 Schisms US-Mal'Ganis
15 17 Mar 2012 01:41 24.37M 239139.8 TunsPugRuns US-Dath'Remar
16 06 Jul 2012 01:41 26.36M 258532.3 Bio's Logs EU-Silvermoon
17 06 Jul 2012 01:41 26.31M 258015.6 GDKP Infinitum EU-Neptulon
18 06 Jul 2012 01:42 26.37M 258496.0 GDKP Infinitum EU-Neptulon
19 13 Aug 2012 01:42 24.23M 237402.1 LaElooRa EU-Вечная Песня
20 26 Jul 2012 01:43 27.53M 264784.4 Orden EU-Азурегос
21 29 Jun 2012 01:44 26.92M 258082.3 genuine EU-Blackrock
22 16 Feb 2012 01:45 25.82M 245203.8 Connexus EU-Kazzak
23 06 May 2012 01:47 26.01M 242437.4 Sauraigne's logs EU-Свежеватель Душ
24 18 Apr 2012 01:47 26.69M 248153.1 Monfire's DPS Whoring US-Bloodhoof
25 19 Apr 2012 01:47 27.98M 259623.2 Litany of Fury US-Thaurissan
26 29 Jul 2012 01:48 25.76M 238061.4 AvatarSuramar US-Suramar
27 15 Mar 2012 01:49 24.86M 227553.4 Fixed US-Blackrock
28 10 Jun 2012 01:49 27.52M 251872.0 ШПлоги EU-Гордунни
29 04 Mar 2012 01:49 25.69M 234583.7 The War Council US-Silver Hand
30 04 Mar 2012 01:49 26.46M 241501.2 Raids that Storm is in. US-Silver Hand
31 07 May 2012 01:49 25.40M 231801.0 Eats Crayons US-Caelestrasz
32 26 Mar 2012 01:50 24.18M 218902.9 Kyoot #1 US-Frostmourne
33 24 Feb 2012 01:50 25.40M 229085.3 Миднайт EU-Гордунни
34 24 Feb 2012 01:50 27.24M 245597.2 Миднайт EU-Гордунни
35 09 Aug 2012 01:51 25.95M 233182.1 vanguard EU-Krasus
36 25 Aug 2012 01:51 27.56M 247550.4 Powersòfpain US-Darkspear
37 25 Aug 2012 01:51 27.41M 245831.9 Revqt US-Thrall
38 29 Jan 2012 01:51 25.67M 229846.6 Apex EU-Al'Akir
39 29 Jan 2012 01:51 26.85M 240368.1 Apex EU-Al'Akir
40 02 Apr 2012 01:51 24.24M 216733.2 lick it EU-Blackhand
41 11 May 2012 01:52 26.71M 238243.8 genuine EU-Blackrock
42 18 Mar 2012 01:52 25.14M 223835.4 airone EU-Свежеватель Душ
43 02 Apr 2012 01:52 26.19M 232711.6 Angered EU-Zenedar
44 02 Mar 2012 01:52 26.54M 235674.0 Inception EU-Zul'jin
45 02 Apr 2012 01:52 27.56M 244380.4 DarkStorm EU-Zenedar
46 13 Mar 2012 01:52 27.31M 242038.0 RNG US-Moonrunner
47 15 May 2012 01:53 25.31M 223745.2 Duality US-Zul'jin
48 03 May 2012 01:53 26.07M 230169.5 Hasstlogs US-Nathrezim
49 11 Apr 2012 01:53 27.44M 241832.8 unleash EU-Aman'Thul
50 17 Apr 2012 01:53 25.49M 224326.7 Цвет волшебства EU-Дракономор
51 14 Feb 2012 01:53 25.61M 224680.0 Duality US-Zul'jin
52 31 Jul 2012 01:54 25.45M 223054.1 deniman EU-Свежеватель Душ
53 20 Jun 2012 01:54 24.81M 217371.4 Dawn of the Dead EU-Eredar
54 16 Aug 2012 01:54 26.97M 235746.5 bonesmen US-Skullcrusher
55 16 Jun 2012 01:54 27.80M 242574.7 Love team EU-Kael'thas
56 02 Apr 2012 01:55 26.11M 226978.7 Vindictive US-Cho'gall
57 09 Apr 2012 01:55 27.08M 234932.2 Litany of Fury US-Thaurissan
58 12 Jul 2012 01:55 16.20M 140484.0 Логи, только Анфори EU-Ревущий фьорд
59 12 Jul 2012 01:55 16.20M 140484.0 Логи, только Анфори EU-Ревущий фьорд
60 06 Aug 2012 01:55 27.78M 240585.7 Paradox EU-Defias Brotherhood
61 19 Aug 2012 01:55 25.39M 219712.1 Corruptio Nex EU-Blackhand
62 15 Aug 2012 01:55 27.55M 238197.0 Exodus EU-Forscherliga
63 29 Jul 2012 01:55 24.43M 211050.3 Meta US-Thrall
64 14 Aug 2012 01:56 27.45M 236613.8 Lokare EU-Antonidas
65 19 Aug 2012 01:56 25.68M 220047.6 Paradox EU-Defias Brotherhood
66 11 Jul 2012 01:56 27.32M 233474.1 Prideless US-Proudmoore
67 10 Jul 2012 01:57 28.44M 242680.6 Лас Ночес EU-Свежеватель Душ
68 18 Jun 2012 01:57 28.76M 245337.6 logged EU-Blackhand
69 24 Feb 2012 01:57 25.54M 217655.4 GDKP Infinitum EU-Neptulon
70 17 Jul 2012 01:57 25.74M 219063.7 DNA US-Thrall
71 18 Jun 2012 01:57 26.64M 226727.5 shitters US-Khaz'goroth
72 01 Aug 2012 01:57 28.31M 240713.0 аркадия 2 EU-Гордунни
73 26 Jan 2012 01:57 26.30M 223489.5 Хэлот EU-Гордунни
74 12 Apr 2012 01:57 25.59M 217367.0 Intent LiveLogs US-Kel'Thuzad
75 21 Aug 2012 01:58 26.92M 228047.6 Echoes EU-Laughing Skull
76 21 Jun 2012 01:58 25.22M 212673.6 Фласок нет EU-Дракономор
77 11 Apr 2012 01:58 25.76M 217229.9 Vigil US-Mal'Ganis
78 16 Feb 2012 01:59 24.80M 208152.5 Kalimera EU-Борейская тундра
79 22 May 2012 01:59 26.18M 219565.4 Старый соболь EU-Гордунни
80 29 Apr 2012 01:59 26.04M 218229.3 Лаки Форс EU-Свежеватель Душ
81 10 Jul 2012 01:59 25.85M 216672.9 Mush Logs US-Blackhand
82 25 Jun 2012 01:59 26.20M 219485.8 Bridgeburners EU-Emerald Dream
83 30 Jul 2012 01:59 25.14M 210534.3 Les Anciens des Arcanes EU-La Croisade écarlate
84 05 Jul 2012 01:59 24.93M 208312.4 Разбавили водой EU-Азурегос
85 10 Apr 2012 01:59 24.10M 201329.6 Brotherhood of the Blade US-Argent Dawn
86 18 Apr 2012 02:00 26.47M 220479.3 Thirteenth Hour US-Frostmourne
87 16 Aug 2012 02:00 25.19M 209749.5 Diviriona EU-Свежеватель Душ
88 16 Aug 2012 02:00 25.19M 209749.5 Diviriona EU-Свежеватель Душ
89 12 Mar 2012 02:00 25.47M 211505.6 Decimation EU-Dun Modr
90 06 Aug 2012 02:00 27.65M 229545.1 Exodus EU-Forscherliga
91 06 Mar 2012 02:00 25.19M 208794.2 Kinetic US-Frostmane
92 19 Aug 2012 02:00 29.05M 240255.6 Friends of Old US-The Forgotten Coast
93 25 Apr 2012 02:00 27.62M 228422.0 Xin US-Turalyon
94 05 May 2012 02:00 27.10M 224097.3 Дети Тумана EU-Подземье
95 14 May 2012 02:00 26.51M 219165.4 Eru EU-Tarren Mill
96 24 Jan 2012 02:01 27.21M 224874.3 NoGuild EU-Гордунни
97 04 May 2012 02:01 27.54M 227026.5 We Know Girls US-Borean Tundra
98 11 Apr 2012 02:01 27.02M 222678.9 Лесько Logs EU-Свежеватель Душ
99 05 Mar 2012 02:01 27.00M 222090.3 Duality US-Zul'jin
100 02 Apr 2012 02:01 28.81M 236245.8 Hyperion US-Draenor

Please do not close the page with the ad you want to report.

I've posted a guide on how to report misbehaving ads on the forum. Please follow the instructions and help make the internet a safer place. Thanks for you time.